createdAt,value
2023-02-14T00:00:35.163Z,96332.19
2023-02-14T00:03:18.211Z,96339.50
2023-02-14T00:06:08.056Z,96320.25
2023-02-14T00:08:54.144Z,96326.53
2023-02-14T00:11:37.179Z,96326.28
2023-02-14T00:14:37.715Z,96328.38
2023-02-14T00:17:20.861Z,96329.06
2023-02-14T00:20:03.933Z,96328.03
2023-02-14T00:22:48.641Z,96326.91
2023-02-14T00:25:31.728Z,96325.72
2023-02-14T00:28:14.792Z,96327.47
2023-02-14T00:30:58.955Z,96319.78
2023-02-14T00:33:42.194Z,96319.53
2023-02-14T00:36:25.267Z,96313.28
2023-02-14T00:39:14.122Z,96312.53
2023-02-14T00:41:57.157Z,96315.00
2023-02-14T00:44:40.249Z,96303.78
2023-02-14T00:47:23.269Z,96312.38
2023-02-14T00:50:07.230Z,96311.44
2023-02-14T00:52:50.315Z,96300.34
2023-02-14T00:55:34.802Z,96291.09
2023-02-14T00:58:17.875Z,96287.50
2023-02-14T01:01:01.970Z,96286.69
2023-02-14T01:03:45.352Z,96287.97
2023-02-14T01:06:28.889Z,96281.38
2023-02-14T01:09:11.993Z,96280.16
2023-02-14T01:11:56.720Z,96285.56
2023-02-14T01:14:39.822Z,96288.69
2023-02-14T01:17:22.859Z,96288.38
2023-02-14T01:20:07.452Z,96276.69
2023-02-14T01:22:50.492Z,96276.41
2023-02-14T01:25:33.703Z,96282.75
2023-02-14T01:28:18.397Z,96274.41
2023-02-14T01:31:08.564Z,96276.84
2023-02-14T01:33:51.960Z,96273.31
2023-02-14T01:36:38.703Z,96269.94
2023-02-14T01:39:21.786Z,96259.31
2023-02-14T01:42:05.135Z,96251.34
2023-02-14T01:45:16.710Z,96249.06
2023-02-14T01:47:59.968Z,96247.56
2023-02-14T01:50:46.639Z,96246.75
2023-02-14T01:53:30.870Z,96242.72
2023-02-14T01:56:19.055Z,96238.94
2023-02-14T01:59:06.593Z,96246.22
2023-02-14T02:01:53.458Z,96230.16
2023-02-14T02:04:39.693Z,96234.47
2023-02-14T02:07:28.176Z,96229.09
2023-02-14T02:10:11.856Z,96226.78
2023-02-14T02:12:55.458Z,96233.28
2023-02-14T02:15:43.727Z,96241.66
2023-02-14T02:18:41.148Z,96230.59
2023-02-14T02:22:02.781Z,96230.16
2023-02-14T02:24:54.908Z,96227.19
2023-02-14T02:28:05.784Z,96214.66
2023-02-14T02:31:22.162Z,96206.16
2023-02-14T02:34:25.104Z,96203.63
2023-02-14T02:37:24.367Z,96201.06
2023-02-14T02:40:24.799Z,96198.50
2023-02-14T02:43:18.500Z,96186.50
2023-02-14T02:46:23.170Z,96192.44
2023-02-14T02:49:14.443Z,96194.13
2023-02-14T02:52:17.748Z,96185.38
2023-02-14T02:55:07.330Z,96185.22
2023-02-14T02:57:51.832Z,96188.19
2023-02-14T03:00:35.017Z,96196.81
2023-02-14T03:03:36.139Z,96205.75
2023-02-14T03:06:19.370Z,96201.31
2023-02-14T03:09:12.570Z,96183.63
2023-02-14T03:12:08.302Z,96200.94
2023-02-14T03:14:58.836Z,96202.81
2023-02-14T03:17:51.992Z,96200.50
2023-02-14T03:20:46.936Z,96203.06
2023-02-14T03:23:33.369Z,96199.56
2023-02-14T03:26:19.917Z,96183.38
2023-02-14T03:29:14.919Z,96165.06
2023-02-14T03:32:05.120Z,96169.13
2023-02-14T03:34:55.025Z,96151.84
2023-02-14T03:37:43.641Z,96167.75
2023-02-14T03:40:29.532Z,96166.13
2023-02-14T03:43:16.944Z,96161.00
2023-02-14T03:46:08.536Z,96176.94
2023-02-14T03:48:54.154Z,96169.38
2023-02-14T03:51:38.835Z,96164.81
2023-02-14T03:54:24.902Z,96162.91
2023-02-14T03:57:17.569Z,96164.81
2023-02-14T04:00:01.019Z,96157.50
2023-02-14T04:02:49.376Z,96143.50
2023-02-14T04:05:32.706Z,96148.88
2023-02-14T04:08:22.536Z,96140.56
2023-02-14T04:11:06.888Z,96135.94
2023-02-14T04:13:50.158Z,96142.31
2023-02-14T04:16:53.926Z,96133.94
2023-02-14T04:19:37.314Z,96145.41
2023-02-14T04:22:20.866Z,96150.53
2023-02-14T04:25:04.027Z,96142.69
2023-02-14T04:27:47.243Z,96141.38
2023-02-14T04:30:30.683Z,96139.34
2023-02-14T04:33:13.854Z,96142.72
2023-02-14T04:35:58.463Z,96139.72
2023-02-14T04:38:41.855Z,96138.94
2023-02-14T04:41:25.254Z,96128.44
2023-02-14T04:44:08.366Z,96135.56
2023-02-14T04:46:51.909Z,96130.31
2023-02-14T04:49:35.345Z,96117.94
2023-02-14T04:52:20.456Z,96117.50
2023-02-14T04:55:04.602Z,96113.88
2023-02-14T04:57:47.910Z,96117.50
2023-02-14T05:00:31.643Z,96119.94
2023-02-14T05:03:14.721Z,96108.75
2023-02-14T05:05:57.846Z,96121.94
2023-02-14T05:08:42.388Z,96132.19
2023-02-14T05:11:25.482Z,96116.31
2023-02-14T05:14:08.870Z,96117.50
2023-02-14T05:16:52.096Z,96120.19
2023-02-14T05:19:35.242Z,96116.31
2023-02-14T05:22:18.672Z,96125.44
2023-02-14T05:25:03.310Z,96117.91
2023-02-14T05:27:46.567Z,96111.44
2023-02-14T05:30:30.637Z,96111.44
2023-02-14T05:33:13.924Z,96109.53
2023-02-14T05:35:59.606Z,96123.53
2023-02-14T05:38:42.931Z,96112.91
2023-02-14T05:41:27.407Z,96113.59
2023-02-14T05:44:10.500Z,96105.47
2023-02-14T05:46:55.071Z,96111.84
2023-02-14T05:49:38.453Z,96108.84
2023-02-14T05:52:21.634Z,96110.88
2023-02-14T05:55:05.283Z,96110.03
2023-02-14T05:57:49.824Z,96104.66
2023-02-14T06:00:32.906Z,96107.34
2023-02-14T06:03:17.111Z,96108.66
2023-02-14T06:06:00.289Z,96103.00
2023-02-14T06:08:43.430Z,96110.00
2023-02-14T06:11:26.783Z,96121.03
2023-02-14T06:14:13.730Z,96122.47
2023-02-14T06:16:58.454Z,96119.84
2023-02-14T06:19:43.392Z,96116.75
2023-02-14T06:22:28.261Z,96117.44
2023-02-14T06:25:12.889Z,96114.94
2023-02-14T06:27:58.447Z,96127.94
2023-02-14T06:30:43.371Z,96121.47
2023-02-14T06:33:26.840Z,96115.34
2023-02-14T06:36:10.462Z,96116.28
2023-02-14T06:38:53.846Z,96115.56
2023-02-14T06:41:37.101Z,96105.16
2023-02-14T06:44:20.880Z,96119.50
2023-02-14T06:47:06.216Z,96114.03
2023-02-14T06:49:49.368Z,96113.50
2023-02-14T06:52:33.513Z,96099.09
2023-02-14T06:55:16.731Z,96101.22
2023-02-14T06:57:59.763Z,96103.59
2023-02-14T07:00:43.137Z,96095.50
2023-02-14T07:03:28.851Z,96105.78
2023-02-14T07:06:12.363Z,96096.22
2023-02-14T07:08:55.476Z,96085.06
2023-02-14T07:11:38.537Z,96086.78
2023-02-14T07:14:21.582Z,96079.22
2023-02-14T07:17:04.997Z,96090.19
2023-02-14T07:19:49.562Z,96099.47
2023-02-14T07:22:32.577Z,96102.25
2023-02-14T07:25:15.919Z,96105.00
2023-02-14T07:27:59.072Z,96098.56
2023-02-14T07:30:42.253Z,96097.91
2023-02-14T07:33:25.379Z,96087.28
2023-02-14T07:36:10.656Z,96099.84
2023-02-14T07:38:53.967Z,96103.19
2023-02-14T07:41:38.766Z,96099.13
2023-02-14T07:44:22.291Z,96108.28
2023-02-14T07:47:05.673Z,96097.78
2023-02-14T07:49:48.950Z,96115.66
2023-02-14T07:52:33.510Z,96129.00
2023-02-14T07:55:16.757Z,96119.63
2023-02-14T07:57:59.976Z,96125.69
2023-02-14T08:00:43.325Z,96132.19
2023-02-14T08:03:26.770Z,96137.78
2023-02-14T08:06:10.078Z,96133.81
2023-02-14T08:08:54.636Z,96143.22
2023-02-14T08:11:55.371Z,96132.81
2023-02-14T08:14:38.493Z,96138.41
2023-02-14T08:17:23.665Z,96146.50
2023-02-14T08:20:08.188Z,96137.56
2023-02-14T08:22:51.786Z,96139.91
2023-02-14T08:25:36.494Z,96135.75
2023-02-14T08:28:24.436Z,96151.13
2023-02-14T08:31:08.030Z,96148.06
2023-02-14T08:33:52.459Z,96154.50
2023-02-14T08:36:36.089Z,96132.97
2023-02-14T08:39:19.473Z,96141.09
2023-02-14T08:42:04.055Z,96138.50
2023-02-14T08:44:47.221Z,96149.16
2023-02-14T08:47:30.328Z,96158.66
2023-02-14T08:50:16.355Z,96156.38
2023-02-14T08:53:00.178Z,96152.53
2023-02-14T08:55:43.249Z,96158.50
2023-02-14T08:58:27.762Z,96163.22
2023-02-14T09:01:11.780Z,96152.31
2023-02-14T09:03:55.234Z,96160.19
2023-02-14T09:06:39.661Z,96163.84
2023-02-14T09:09:23.081Z,96141.56
2023-02-14T09:12:08.440Z,96149.66
2023-02-14T09:14:52.973Z,96147.47
2023-02-14T09:17:36.564Z,96141.56
2023-02-14T09:20:19.708Z,96132.94
2023-02-14T09:23:03.027Z,96133.91
2023-02-14T09:25:46.225Z,96133.66
2023-02-14T09:28:29.917Z,96132.50
2023-02-14T09:31:16.946Z,96131.34
2023-02-14T09:34:17.562Z,96138.13
2023-02-14T09:37:00.881Z,96136.34
2023-02-14T09:39:44.030Z,96135.44
2023-02-14T09:42:54.817Z,96131.59
2023-02-14T09:45:39.725Z,96132.88
2023-02-14T09:48:31.075Z,96121.94
2023-02-14T09:51:17.845Z,96122.38
2023-02-14T09:54:05.236Z,96133.50
2023-02-14T09:56:55.074Z,96118.41
2023-02-14T09:59:51.825Z,96128.41
2023-02-14T10:02:50.510Z,96114.94
2023-02-14T10:05:42.317Z,96120.13
2023-02-14T10:08:40.844Z,96110.13
2023-02-14T10:11:26.273Z,96116.06
2023-02-14T10:14:16.108Z,96115.69
2023-02-14T10:17:07.113Z,96104.97
2023-02-14T10:19:57.399Z,96106.56
2023-02-14T10:22:46.689Z,96101.78
2023-02-14T10:25:35.917Z,96096.94
2023-02-14T10:28:32.838Z,96080.84
2023-02-14T10:31:23.979Z,96099.88
2023-02-14T10:34:14.904Z,96093.09
2023-02-14T10:37:17.330Z,96092.09
2023-02-14T10:40:42.404Z,96096.75
2023-02-14T10:43:34.935Z,96086.47
2023-02-14T10:46:27.398Z,96084.06
2023-02-14T10:49:28.604Z,96090.50
2023-02-14T10:52:23.684Z,96089.19
2023-02-14T10:55:31.382Z,96090.00
2023-02-14T10:58:18.771Z,96089.84
2023-02-14T11:01:06.833Z,96087.88
2023-02-14T11:03:56.732Z,96083.66
2023-02-14T11:06:40.127Z,96082.72
2023-02-14T11:09:23.216Z,96077.56
2023-02-14T11:12:08.624Z,96086.84
2023-02-14T11:14:56.964Z,96085.44
2023-02-14T11:17:40.444Z,96084.75
2023-02-14T11:20:27.992Z,96078.19
2023-02-14T11:23:20.823Z,96079.81
2023-02-14T11:26:06.440Z,96080.16
2023-02-14T11:29:04.846Z,96072.03
2023-02-14T11:31:48.248Z,96070.47
2023-02-14T11:34:40.047Z,96064.72
2023-02-14T11:37:29.218Z,96067.13
2023-02-14T11:40:28.034Z,96071.50
2023-02-14T11:43:30.280Z,96065.03
2023-02-14T11:46:27.769Z,96058.94
2023-02-14T11:49:27.758Z,96054.59
2023-02-14T11:52:12.774Z,96044.75
2023-02-14T11:54:59.923Z,96041.06
2023-02-14T11:57:43.333Z,96037.69
2023-02-14T12:00:28.162Z,96046.53
2023-02-14T12:03:20.680Z,96024.81
2023-02-14T12:06:03.974Z,96028.97
2023-02-14T12:08:47.484Z,96028.03
2023-02-14T12:11:33.196Z,96015.47
2023-02-14T12:14:24.019Z,96019.66
2023-02-14T12:17:20.192Z,96012.72
2023-02-14T12:20:13.277Z,96008.53
2023-02-14T12:23:04.390Z,96006.13
2023-02-14T12:25:54.499Z,96009.97
2023-02-14T12:28:46.926Z,96000.56
2023-02-14T12:31:34.218Z,96005.38
2023-02-14T12:34:20.147Z,96001.38
2023-02-14T12:37:19.058Z,96001.78
2023-02-14T12:40:18.083Z,95982.06
2023-02-14T12:43:18.091Z,95994.72
2023-02-14T12:46:19.467Z,95998.84
2023-02-14T12:49:25.028Z,95997.97
2023-02-14T12:52:27.024Z,96002.34
2023-02-14T12:55:29.643Z,96001.38
2023-02-14T12:58:26.196Z,95996.22
2023-02-14T13:01:38.766Z,95992.38
2023-02-14T13:04:48.479Z,95996.94
2023-02-14T13:07:49.576Z,95988.91
2023-02-14T13:10:51.000Z,95989.91
2023-02-14T13:13:44.260Z,95991.84
2023-02-14T13:16:35.404Z,95991.44
2023-02-14T13:19:33.317Z,95989.06
2023-02-14T13:22:21.797Z,95985.16
2023-02-14T13:25:15.484Z,95974.16
2023-02-14T13:28:00.619Z,95980.44
2023-02-14T13:30:44.553Z,95982.78
2023-02-14T13:33:34.904Z,95986.19
2023-02-14T13:36:19.067Z,95983.63
2023-02-14T13:39:03.902Z,95975.50
2023-02-14T13:41:48.657Z,95973.56
2023-02-14T13:44:45.046Z,95978.41
2023-02-14T13:47:28.415Z,95987.75
2023-02-14T13:50:22.241Z,95989.09
2023-02-14T13:53:05.376Z,95994.53
2023-02-14T13:55:55.718Z,95994.22
2023-02-14T13:58:48.681Z,95991.31
2023-02-14T14:01:39.161Z,95996.47
2023-02-14T14:04:36.938Z,95995.66
2023-02-14T14:07:23.313Z,95992.75
2023-02-14T14:10:08.896Z,95997.09
2023-02-14T14:12:53.395Z,95988.53
2023-02-14T14:15:38.196Z,95987.13
2023-02-14T14:18:46.645Z,95996.47
2023-02-14T14:21:31.874Z,95992.28
2023-02-14T14:24:22.910Z,95993.59
2023-02-14T14:27:14.496Z,95996.81
2023-02-14T14:29:59.694Z,95969.25
2023-02-14T14:32:45.607Z,95978.78
2023-02-14T14:35:28.998Z,95954.00
2023-02-14T14:38:15.047Z,95965.25
2023-02-14T14:40:58.690Z,95973.63
2023-02-14T14:43:42.834Z,95958.78
2023-02-14T14:46:27.066Z,95955.25
2023-02-14T14:49:13.575Z,95972.97
2023-02-14T14:51:57.003Z,95972.50
2023-02-14T14:54:41.002Z,95978.91
2023-02-14T14:57:24.255Z,95975.53
2023-02-14T15:00:20.179Z,95986.16
2023-02-14T15:03:06.804Z,95979.06
2023-02-14T15:05:52.780Z,95989.22
2023-02-14T15:08:37.011Z,95994.50
2023-02-14T15:11:37.527Z,95984.50
2023-02-14T15:14:24.025Z,95982.72
2023-02-14T15:17:12.675Z,95989.34
2023-02-14T15:19:59.156Z,95983.19
2023-02-14T15:22:46.919Z,95989.00
2023-02-14T15:25:34.175Z,95986.09
2023-02-14T15:28:28.416Z,95990.25
2023-02-14T15:31:11.796Z,95994.78
2023-02-14T15:33:55.276Z,95989.22
2023-02-14T15:36:38.910Z,95998.91
2023-02-14T15:39:30.009Z,95997.41
2023-02-14T15:42:25.179Z,95991.31
2023-02-14T15:45:22.543Z,95996.91
2023-02-14T15:48:13.682Z,95990.50
2023-02-14T15:51:00.156Z,95999.78
2023-02-14T15:53:47.179Z,96001.69
2023-02-14T15:56:37.846Z,95996.78
2023-02-14T15:59:24.018Z,96000.38
2023-02-14T16:02:29.082Z,95997.78
2023-02-14T16:05:20.607Z,96000.69
2023-02-14T16:08:08.268Z,96001.94
2023-02-14T16:11:02.149Z,95999.06
2023-02-14T16:13:48.441Z,95997.41
2023-02-14T16:16:58.818Z,96000.63
2023-02-14T16:19:44.980Z,95996.50
2023-02-14T16:22:32.150Z,95997.06
2023-02-14T16:25:15.570Z,95994.66
2023-02-14T16:27:58.789Z,95999.41
2023-02-14T16:30:45.464Z,96005.41
2023-02-14T16:33:31.159Z,96000.06
2023-02-14T16:36:20.891Z,96004.06
2023-02-14T16:39:05.812Z,96010.88
2023-02-14T16:41:50.842Z,96005.97
2023-02-14T16:44:34.064Z,96001.44
2023-02-14T16:47:20.785Z,96016.19
2023-02-14T16:50:04.022Z,96014.44
2023-02-14T16:52:51.381Z,96019.72
2023-02-14T16:55:35.672Z,96010.06
2023-02-14T16:58:19.916Z,96012.63
2023-02-14T17:01:03.563Z,96013.91
2023-02-14T17:03:48.173Z,96013.72
2023-02-14T17:06:34.008Z,96009.81
2023-02-14T17:09:19.281Z,96011.34
2023-02-14T17:12:07.248Z,96014.91
2023-02-14T17:14:54.868Z,96016.97
2023-02-14T17:17:38.608Z,96021.66
2023-02-14T17:20:24.499Z,96018.34
2023-02-14T17:23:07.865Z,96024.69
2023-02-14T17:25:51.165Z,96030.84
2023-02-14T17:28:34.455Z,96032.78
2023-02-14T17:31:18.192Z,96026.91
2023-02-14T17:34:01.445Z,96032.47
2023-02-14T17:36:45.997Z,96029.19
2023-02-14T17:39:29.027Z,96037.59
2023-02-14T17:42:12.270Z,96048.47
2023-02-14T17:44:55.353Z,96035.84
2023-02-14T17:47:39.762Z,96028.28
2023-02-14T17:50:23.189Z,96034.06
2023-02-14T17:53:09.450Z,96037.50
2023-02-14T17:55:52.479Z,96042.78
2023-02-14T17:58:36.158Z,96040.09
2023-02-14T18:01:21.839Z,96046.47
2023-02-14T18:04:05.760Z,96042.34
2023-02-14T18:06:49.047Z,96039.31
2023-02-14T18:09:35.198Z,96054.06
2023-02-14T18:12:19.577Z,96042.66
2023-02-14T18:15:02.685Z,96047.50
2023-02-14T18:17:46.270Z,96051.50
2023-02-14T18:20:29.402Z,96049.91
2023-02-14T18:23:12.532Z,96049.91
2023-02-14T18:25:59.371Z,96044.47
2023-02-14T18:28:42.875Z,96042.91
2023-02-14T18:31:26.868Z,96041.56
2023-02-14T18:34:10.552Z,96055.53
2023-02-14T18:36:53.888Z,96048.41
2023-02-14T18:39:36.980Z,96048.69
2023-02-14T18:42:21.806Z,96048.41
2023-02-14T18:45:05.229Z,96054.13
2023-02-14T18:47:48.608Z,96042.75
2023-02-14T18:50:32.200Z,96043.84
2023-02-14T18:53:15.277Z,96039.94
2023-02-14T18:55:58.324Z,96044.47
2023-02-14T18:58:44.780Z,96040.03
2023-02-14T19:01:30.650Z,96042.56
2023-02-14T19:04:15.001Z,96038.72
2023-02-14T19:06:58.409Z,96044.03
2023-02-14T19:09:43.161Z,96047.97
2023-02-14T19:12:26.381Z,96041.84
2023-02-14T19:15:11.637Z,96045.13
2023-02-14T19:17:54.892Z,96044.97
2023-02-14T19:20:38.922Z,96059.06
2023-02-14T19:23:22.072Z,96048.66
2023-02-14T19:26:11.813Z,96048.59
2023-02-14T19:28:59.868Z,96054.56
2023-02-14T19:31:48.394Z,96064.47
2023-02-14T19:34:32.873Z,96066.72
2023-02-14T19:37:16.175Z,96065.78
2023-02-14T19:39:59.307Z,96069.22
2023-02-14T19:42:42.634Z,96072.91
2023-02-14T19:45:27.437Z,96062.31
2023-02-14T19:48:12.554Z,96068.25
2023-02-14T19:50:55.664Z,96068.25
2023-02-14T19:53:39.006Z,96071.75
2023-02-14T19:56:23.052Z,96074.34
2023-02-14T19:59:09.302Z,96068.47
2023-02-14T20:01:53.688Z,96065.22
2023-02-14T20:04:38.344Z,96076.50
2023-02-14T20:07:22.234Z,96077.59
2023-02-14T20:10:05.831Z,96077.78
2023-02-14T20:12:49.627Z,96086.91
2023-02-14T20:15:32.774Z,96083.13
2023-02-14T20:18:15.936Z,96072.66
2023-02-14T20:21:03.353Z,96090.69
2023-02-14T20:23:46.991Z,96075.97
2023-02-14T20:26:31.004Z,96073.59
2023-02-14T20:29:14.757Z,96067.78
2023-02-14T20:32:04.118Z,96073.94
2023-02-14T20:34:48.045Z,96066.09
2023-02-14T20:37:32.539Z,96071.22
2023-02-14T20:40:16.424Z,96062.63
2023-02-14T20:43:02.294Z,96067.19
2023-02-14T20:45:46.036Z,96068.44
2023-02-14T20:48:30.076Z,96071.38
2023-02-14T20:51:14.986Z,96073.94
2023-02-14T20:54:00.355Z,96071.09
2023-02-14T20:56:45.545Z,96069.06
2023-02-14T20:59:29.061Z,96071.19
2023-02-14T21:02:13.165Z,96071.53
2023-02-14T21:05:00.381Z,96064.81
2023-02-14T21:07:43.897Z,96072.41
2023-02-14T21:10:28.896Z,96068.88
2023-02-14T21:13:11.921Z,96075.94
2023-02-14T21:15:57.726Z,96071.91
2023-02-14T21:18:40.969Z,96074.81
2023-02-14T21:21:25.959Z,96075.06
2023-02-14T21:24:11.404Z,96068.47
2023-02-14T21:26:56.080Z,96078.72
2023-02-14T21:29:39.184Z,96075.78
2023-02-14T21:32:22.311Z,96082.78
2023-02-14T21:35:08.606Z,96078.22
2023-02-14T21:37:52.104Z,96088.31
2023-02-14T21:40:35.881Z,96089.81
2023-02-14T21:43:21.051Z,96085.66
2023-02-14T21:46:08.592Z,96082.91
2023-02-14T21:49:08.757Z,96084.97
2023-02-14T21:51:52.316Z,96082.28
2023-02-14T21:54:36.739Z,96091.72
2023-02-14T21:57:19.852Z,96074.03
2023-02-14T22:00:05.731Z,96085.53
2023-02-14T22:02:50.645Z,96077.16
2023-02-14T22:05:33.946Z,96082.03
2023-02-14T22:08:17.003Z,96079.34
2023-02-14T22:11:00.931Z,96084.72
2023-02-14T22:13:44.286Z,96091.97
2023-02-14T22:16:29.554Z,96099.78
2023-02-14T22:19:16.972Z,96098.38
2023-02-14T22:22:00.158Z,96103.50
2023-02-14T22:24:43.277Z,96110.78
2023-02-14T22:27:30.385Z,96119.41
2023-02-14T22:30:14.536Z,96122.59
2023-02-14T22:32:59.028Z,96116.94
2023-02-14T22:35:42.157Z,96119.03
2023-02-14T22:38:25.450Z,96115.53
2023-02-14T22:41:11.339Z,96103.25
2023-02-14T22:43:56.401Z,96107.19
2023-02-14T22:46:39.633Z,96108.00
2023-02-14T22:49:24.226Z,96104.22
2023-02-14T22:52:07.354Z,96105.72
2023-02-14T22:54:52.905Z,96102.31
2023-02-14T22:57:36.042Z,96105.69
2023-02-14T23:00:19.385Z,96113.09
2023-02-14T23:03:02.680Z,96117.38
2023-02-14T23:05:47.127Z,96113.97
2023-02-14T23:08:30.410Z,96112.78
2023-02-14T23:11:15.496Z,96114.59
2023-02-14T23:14:18.252Z,96125.88
2023-02-14T23:17:21.123Z,96112.34
2023-02-14T23:20:21.729Z,96104.56
2023-02-14T23:23:06.230Z,96105.13
2023-02-14T23:25:49.488Z,96108.94
2023-02-14T23:28:32.854Z,96109.88
2023-02-14T23:31:16.103Z,96114.59
2023-02-14T23:33:59.488Z,96111.66
2023-02-14T23:36:42.818Z,96115.03
2023-02-14T23:39:27.908Z,96110.09
2023-02-14T23:42:13.815Z,96110.59
2023-02-14T23:45:16.877Z,96106.03
2023-02-14T23:48:03.476Z,96111.16
2023-02-14T23:50:46.652Z,96117.91
2023-02-14T23:53:30.155Z,96111.97
2023-02-14T23:56:14.865Z,96127.75
2023-02-14T23:58:58.238Z,96123.84
